Time;durP1;ratioP1;P1;durP2;ratioP2;P2;SDS_P1;SDS_P2;PMS_P1;PMS_P2;Temp;Humidity;BMP_temperature;BMP_pressure;BME280_temperature;BME280_humidity;BME280_pressure;Samples;Min_cycle;Max_cycle;Signal;HPM_P1;HPM_P2
2023/11/12 00:02:24;;;;;;;1.30;1.20;;;;;;;5.60;100.00;97411.16;5100305;28;20318;-81
2023/11/12 00:04:51;;;;;;;2.27;1.73;;;;;;;5.57;100.00;97403.47;5099853;28;20214;-81
2023/11/12 00:07:17;;;;;;;2.13;1.50;;;;;;;5.54;100.00;97411.53;5099659;28;20211;-81
2023/11/12 00:09:44;;;;;;;2.07;1.50;;;;;;;5.63;100.00;97397.84;5099569;28;20203;-81
2023/11/12 00:12:11;;;;;;;1.40;1.30;;;;;;;5.60;100.00;97397.19;5100070;28;20226;-81
2023/11/12 00:14:40;;;;;;;2.90;1.50;;;;;;;5.61;100.00;97394.50;5099353;28;20256;-80
2023/11/12 00:17:07;;;;;;;2.47;1.77;;;;;;;5.61;100.00;97389.25;5098811;28;20222;-81
2023/11/12 00:19:34;;;;;;;2.13;1.70;;;;;;;5.64;100.00;97389.06;5099589;28;20222;-81
2023/11/12 00:22:01;;;;;;;1.60;1.50;;;;;;;5.62;100.00;97390.09;5098945;28;20226;-81
2023/11/12 00:24:28;;;;;;;1.83;1.40;;;;;;;5.62;100.00;97383.06;5099139;28;20203;-80
2023/11/12 00:26:55;;;;;;;3.47;1.80;;;;;;;5.58;100.00;97389.44;5099167;28;20207;-80
2023/11/12 00:29:21;;;;;;;1.87;1.57;;;;;;;5.56;100.00;97375.56;5098390;28;20252;-81
2023/11/12 00:31:48;;;;;;;1.53;1.43;;;;;;;5.59;100.00;97382.41;5098851;28;20606;-80
2023/11/12 00:34:14;;;;;;;2.77;1.63;;;;;;;5.56;100.00;97383.44;5098891;28;20231;-80
2023/11/12 00:36:42;;;;;;;1.50;1.40;;;;;;;5.60;100.00;97376.22;5099121;28;20214;-81
2023/11/12 00:39:10;;;;;;;1.97;1.50;;;;;;;5.56;100.00;97378.19;5099366;28;20302;-80
2023/11/12 00:41:37;;;;;;;3.17;1.63;;;;;;;5.52;100.00;97379.34;5099665;28;20713;-81
2023/11/12 00:44:04;;;;;;;1.50;1.40;;;;;;;5.53;100.00;97373.16;5099527;28;20206;-80
2023/11/12 00:46:30;;;;;;;2.63;1.63;;;;;;;5.53;100.00;97375.78;5100439;28;20586;-80
2023/11/12 00:48:58;;;;;;;2.53;1.43;;;;;;;5.56;100.00;97365.09;5099987;28;20213;-81
2023/11/12 00:51:24;;;;;;;3.10;1.90;;;;;;;5.53;100.00;97370.53;5099637;28;20231;-80
2023/11/12 00:53:52;;;;;;;1.77;1.40;;;;;;;5.56;100.00;97370.34;5098860;28;20582;-80
2023/11/12 00:56:19;;;;;;;2.03;1.53;;;;;;;5.56;100.00;97359.03;5100108;28;20209;-80
2023/11/12 00:58:45;;;;;;;2.27;1.40;;;;;;;5.63;100.00;97355.91;5098799;28;20217;-81
2023/11/12 01:01:14;;;;;;;2.67;1.80;;;;;;;5.61;100.00;97352.56;5099566;28;20232;-80
2023/11/12 01:03:40;;;;;;;1.63;1.33;;;;;;;5.64;100.00;97352.38;5099098;28;20213;-81
2023/11/12 01:06:07;;;;;;;2.73;1.50;;;;;;;5.63;100.00;97350.66;5098428;28;20216;-81
2023/11/12 01:08:34;;;;;;;2.17;1.53;;;;;;;5.61;100.00;97347.31;5099196;28;20207;-81
2023/11/12 01:11:02;;;;;;;1.60;1.23;;;;;;;5.62;100.00;97346.38;5099123;28;20227;-80
2023/11/12 01:13:29;;;;;;;2.63;1.20;;;;;;;5.60;100.00;97350.88;5099238;28;20227;-81
2023/11/12 01:15:56;;;;;;;1.33;1.20;;;;;;;5.64;100.00;97352.38;5099771;28;20234;-81
2023/11/12 01:18:22;;;;;;;1.80;1.10;;;;;;;5.67;100.00;97346.94;5099428;28;20207;-81
2023/11/12 01:20:50;;;;;;;1.03;0.93;;;;;;;5.66;100.00;97350.50;5099060;28;20256;-81
2023/11/12 01:23:17;;;;;;;1.03;0.97;;;;;;;5.70;100.00;97341.50;5098844;28;20207;-81
2023/11/12 01:25:44;;;;;;;2.13;1.13;;;;;;;5.67;100.00;97341.69;5099759;28;20206;-81
2023/11/12 01:28:11;;;;;;;1.80;0.90;;;;;;;5.70;100.00;97341.50;5101036;28;20221;-80
2023/11/12 01:30:40;;;;;;;1.77;1.17;;;;;;;5.70;100.00;97341.50;5103489;28;20229;-81
2023/11/12 01:33:07;;;;;;;1.23;1.13;;;;;;;5.73;100.00;97341.31;5103163;28;20233;-80
2023/11/12 01:35:33;;;;;;;1.63;1.30;;;;;;;5.70;100.00;97336.28;5100693;28;20220;-79
2023/11/12 01:38:00;;;;;;;1.10;1.00;;;;;;;5.73;100.00;97336.06;5095330;28;20642;-79
2023/11/12 01:40:28;;;;;;;2.70;1.40;;;;;;;5.76;100.00;97328.03;5094708;28;20218;-79
2023/11/12 01:42:54;;;;;;;1.13;0.90;;;;;;;5.77;100.00;97320.97;5094647;28;20227;-80
2023/11/12 01:45:22;;;;;;;1.20;1.10;;;;;;;5.83;100.00;97334.59;5095357;28;20319;-80
2023/11/12 01:47:50;;;;;;;2.27;1.00;;;;;;;5.81;100.00;97328.59;5094411;28;20243;-80
2023/11/12 01:50:18;;;;;;;1.37;1.00;;;;;;;5.82;100.00;97325.03;5094807;28;20204;-80
2023/11/12 01:52:46;;;;;;;2.10;1.20;;;;;;;5.79;100.00;97319.94;5094558;28;20248;-80
2023/11/12 01:55:14;;;;;;;1.40;1.17;;;;;;;5.76;100.00;97329.78;5094642;28;20215;-80
2023/11/12 01:57:43;;;;;;;1.47;1.20;;;;;;;5.75;100.00;97321.06;5095189;28;20204;-80
2023/11/12 02:00:11;;;;;;;1.10;1.00;;;;;;;5.77;100.00;97321.84;5094769;28;20274;-80
2023/11/12 02:02:39;;;;;;;1.33;1.00;;;;;;;5.81;100.00;97318.09;5094578;28;20602;-80
2023/11/12 02:05:08;;;;;;;1.83;1.27;;;;;;;5.82;100.00;97314.56;5094365;28;20207;-80
2023/11/12 02:07:36;;;;;;;1.17;1.07;;;;;;;5.88;100.00;97314.19;5092926;22;20235;-81
2023/11/12 02:10:09;;;;;;;1.30;0.90;;;;;;;5.94;100.00;97308.53;5039981;28;20196;-80
2023/11/12 02:12:36;;;;;;;1.00;0.90;;;;;;;5.95;100.00;97311.97;5039815;28;20225;-80
2023/11/12 02:15:04;;;;;;;1.07;0.97;;;;;;;5.94;100.00;97318.19;5037742;28;20233;-79
2023/11/12 02:17:32;;;;;;;1.13;0.90;;;;;;;5.94;100.00;97302.44;5038336;28;20657;-82
2023/11/12 02:20:05;;;;;;;0.80;0.80;;;;;;;5.98;100.00;97307.38;5040009;28;20216;-81
2023/11/12 02:22:33;;;;;;;1.40;0.90;;;;;;;5.94;100.00;97305.91;5038814;28;20787;-80
2023/11/12 02:25:01;;;;;;;2.63;1.47;;;;;;;5.90;100.00;97304.41;5039723;28;20216;-80
2023/11/12 02:27:27;;;;;;;1.67;1.00;;;;;;;5.95;100.00;97304.13;5039386;28;20313;-83
2023/11/12 02:29:54;;;;;;;0.93;0.83;;;;;;;5.98;100.00;97299.50;5040679;28;20221;-81
2023/11/12 02:32:20;;;;;;;1.33;1.00;;;;;;;6.00;100.00;97296.81;5040348;28;20232;-81
2023/11/12 02:34:48;;;;;;;1.20;1.00;;;;;;;5.98;100.00;97296.88;5040707;28;20235;-82
2023/11/12 02:37:15;;;;;;;0.90;0.83;;;;;;;5.99;100.00;97301.19;5040246;28;20215;-82
2023/11/12 02:39:41;;;;;;;2.53;1.13;;;;;;;5.94;100.00;97292.81;5040273;28;20216;-82
2023/11/12 02:42:09;;;;;;;1.77;0.93;;;;;;;5.92;100.00;97294.66;5040700;28;20602;-80
2023/11/12 02:44:37;;;;;;;1.57;1.00;;;;;;;5.95;100.00;97289.25;5039784;28;20219;-82
2023/11/12 02:47:04;;;;;;;2.37;1.20;;;;;;;5.92;100.00;97281.56;5045354;28;20216;-81
2023/11/12 02:49:49;;;;;;;1.10;0.90;;;;;;;5.89;100.00;97289.63;5045356;28;20217;-81
2023/11/12 02:52:16;;;;;;;1.50;1.00;;;;;;;5.85;100.00;97275.03;5045416;28;20335;-81
2023/11/12 02:54:42;;;;;;;2.00;1.00;;;;;;;5.82;100.00;97275.22;5044602;28;20822;-81
2023/11/12 02:57:10;;;;;;;1.23;1.00;;;;;;;5.77;100.00;97279.88;5043755;28;20215;-81
2023/11/12 02:59:37;;;;;;;2.17;0.97;;;;;;;5.73;100.00;97262.66;5043239;28;20217;-81
2023/11/12 03:02:04;;;;;;;1.03;0.93;;;;;;;5.67;100.00;97265.66;5044087;28;20229;-82
2023/11/12 03:04:30;;;;;;;1.33;0.87;;;;;;;5.52;100.00;97258.78;5044503;28;20232;-81
2023/11/12 03:06:57;;;;;;;1.30;0.97;;;;;;;5.27;100.00;97248.16;5044586;28;20205;-81
2023/11/12 03:09:24;;;;;;;1.50;1.10;;;;;;;5.06;100.00;97249.47;5043133;28;20258;-83
2023/11/12 03:11:50;;;;;;;2.40;1.10;;;;;;;4.88;100.00;97239.28;5044174;28;20278;-82
2023/11/12 03:14:19;;;;;;;1.80;1.10;;;;;;;4.70;100.00;97240.41;5040900;28;20785;-82
2023/11/12 03:16:45;;;;;;;1.20;1.10;;;;;;;4.52;100.00;97226.63;5038591;28;20576;-82
2023/11/12 03:19:12;;;;;;;1.63;1.03;;;;;;;4.44;100.00;97218.41;5037708;28;20293;-82
2023/11/12 03:21:40;;;;;;;1.30;1.03;;;;;;;4.31;100.00;97225.28;5043315;28;20220;-81
2023/11/12 03:24:08;;;;;;;1.10;0.90;;;;;;;4.17;100.00;97220.00;5055987;28;20193;-81
2023/11/12 03:26:35;;;;;;;0.90;0.90;;;;;;;4.06;100.00;97217.19;5060268;28;20201;-81
2023/11/12 03:29:03;;;;;;;1.23;1.00;;;;;;;3.99;100.00;97226.34;5060921;28;20188;-80
2023/11/12 03:31:31;;;;;;;1.20;1.10;;;;;;;3.96;100.00;97220.41;5060968;28;20212;-83
2023/11/12 03:33:58;;;;;;;1.33;1.00;;;;;;;3.95;100.00;97222.19;5059340;28;20224;-81
2023/11/12 03:36:24;;;;;;;1.77;1.37;;;;;;;4.06;100.00;97217.19;5050436;28;20212;-82
2023/11/12 03:38:51;;;;;;;2.63;1.17;;;;;;;4.19;100.00;97212.94;5043049;28;20243;-81
2023/11/12 03:41:17;;;;;;;1.20;1.10;;;;;;;4.09;100.00;97216.19;5044122;28;20229;-81
2023/11/12 03:43:44;;;;;;;1.40;1.20;;;;;;;3.98;100.00;97215.97;5042189;28;20221;-82
2023/11/12 03:46:10;;;;;;;1.23;1.03;;;;;;;3.87;100.00;97216.56;5042424;28;20217;-80
2023/11/12 03:48:38;;;;;;;1.90;1.10;;;;;;;3.74;100.00;97204.28;5041144;28;20212;-81
2023/11/12 03:51:05;;;;;;;1.47;1.33;;;;;;;3.63;100.00;97217.09;5040655;28;20232;-79
2023/11/12 03:53:32;;;;;;;2.03;0.97;;;;;;;3.58;100.00;97224.34;5040545;28;20222;-80
2023/11/12 03:55:58;;;;;;;1.57;1.10;;;;;;;3.59;100.00;97219.06;5038399;28;20213;-81
2023/11/12 03:58:24;;;;;;;1.53;1.17;;;;;;;3.62;100.00;97221.47;5036767;28;20559;-82
2023/11/12 04:00:51;;;;;;;2.00;1.20;;;;;;;3.57;100.00;97217.44;5037098;28;20212;-83
2023/11/12 04:03:18;;;;;;;1.20;1.10;;;;;;;3.54;100.00;97218.47;5041663;28;20585;-82
2023/11/12 04:05:46;;;;;;;1.97;1.30;;;;;;;3.52;100.00;97204.66;5040230;28;20209;-82
2023/11/12 04:08:13;;;;;;;1.53;1.20;;;;;;;3.50;100.00;97205.66;5042345;28;20243;-81
2023/11/12 04:10:39;;;;;;;1.30;1.20;;;;;;;3.46;100.00;97205.00;5050402;28;20195;-80
2023/11/12 04:13:06;;;;;;;1.10;1.00;;;;;;;3.45;100.00;97198.09;5059780;28;20220;-81
2023/11/12 04:15:32;;;;;;;1.53;1.17;;;;;;;3.41;100.00;97191.34;5059478;28;20364;-82
2023/11/12 04:17:59;;;;;;;1.13;1.03;;;;;;;3.36;100.00;97193.38;5051890;28;20215;-83
2023/11/12 04:20:28;;;;;;;1.40;1.30;;;;;;;3.33;100.00;97193.56;5044581;28;20239;-82
2023/11/12 04:22:56;;;;;;;1.63;1.50;;;;;;;3.27;100.00;97188.69;5042163;28;20296;-85
2023/11/12 04:25:23;;;;;;;1.50;1.30;;;;;;;3.26;100.00;97192.22;5043024;28;20311;-82
2023/11/12 04:27:50;;;;;;;2.20;1.50;;;;;;;3.21;100.00;97193.38;5045695;28;20208;-82
2023/11/12 04:30:17;;;;;;;2.67;1.80;;;;;;;3.25;100.00;97195.72;5044411;28;20740;-83
2023/11/12 04:32:45;;;;;;;2.17;1.97;;;;;;;3.18;100.00;97186.56;5044750;28;20232;-82
2023/11/12 04:35:12;;;;;;;1.90;1.63;;;;;;;3.12;100.00;97184.28;5043716;28;20316;-82
2023/11/12 04:37:38;;;;;;;1.90;1.70;;;;;;;3.06;100.00;97174.19;5043183;28;20202;-83
2023/11/12 04:40:09;;;;;;;3.20;1.90;;;;;;;3.05;100.00;97176.88;5043526;28;20220;-82
2023/11/12 04:42:35;;;;;;;3.43;1.97;;;;;;;3.09;100.00;97178.38;5026980;28;20229;-83
2023/11/12 04:45:02;;;;;;;1.93;1.60;;;;;;;3.07;100.00;97180.25;5043622;28;20304;-82
2023/11/12 04:47:29;;;;;;;2.10;1.90;;;;;;;3.06;100.00;97178.56;5044425;28;20206;-82
2023/11/12 04:49:55;;;;;;;2.10;1.90;;;;;;;3.05;100.00;97175.09;5044965;28;20214;-81
2023/11/12 04:52:22;;;;;;;1.40;1.27;;;;;;;2.98;100.00;97173.75;5042802;28;20239;-82
2023/11/12 04:54:50;;;;;;;1.70;1.30;;;;;;;2.94;100.00;97167.00;5044386;28;20226;-82
2023/11/12 04:57:18;;;;;;;1.93;1.57;;;;;;;2.89;100.00;97171.63;5042444;28;20224;-82
2023/11/12 04:59:45;;;;;;;1.40;1.30;;;;;;;2.90;100.00;97173.34;5043114;28;20272;-82
2023/11/12 05:02:12;;;;;;;2.10;1.67;;;;;;;2.92;100.00;97175.84;5041989;28;20243;-81
2023/11/12 05:04:38;;;;;;;1.53;1.43;;;;;;;2.91;100.00;97169.81;5043111;28;20210;-83
2023/11/12 05:07:06;;;;;;;2.37;1.70;;;;;;;2.94;100.00;97180.06;5042878;28;20221;-83
2023/11/12 05:09:32;;;;;;;2.90;1.50;;;;;;;2.93;100.00;97178.38;5043390;28;20208;-83
2023/11/12 05:11:59;;;;;;;2.73;1.40;;;;;;;2.91;100.00;97176.78;5042414;28;20317;-83
2023/11/12 05:14:27;;;;;;;2.37;1.40;;;;;;;2.84;100.00;97171.06;5042929;28;20231;-83
2023/11/12 05:16:54;;;;;;;1.60;1.40;;;;;;;2.83;100.00;97177.22;5042471;28;20270;-83
2023/11/12 05:19:20;;;;;;;1.90;1.43;;;;;;;2.80;100.00;97171.28;5041772;28;20212;-83
2023/11/12 05:21:47;;;;;;;1.53;1.43;;;;;;;2.81;100.00;97167.78;5040879;28;20398;-82
2023/11/12 05:24:14;;;;;;;2.40;1.70;;;;;;;2.84;100.00;97173.69;5042169;28;20216;-82
2023/11/12 05:26:40;;;;;;;2.37;1.80;;;;;;;2.86;100.00;97182.25;5040982;28;20214;-82
2023/11/12 05:29:07;;;;;;;4.17;2.10;;;;;;;2.89;100.00;97181.25;5040954;28;20285;-83
2023/11/12 05:31:35;;;;;;;3.50;2.20;;;;;;;2.91;100.00;97185.47;5040617;28;20235;-83
2023/11/12 05:34:02;;;;;;;3.53;2.17;;;;;;;2.91;100.00;97190.69;5040822;28;20208;-82
2023/11/12 05:36:29;;;;;;;3.17;2.47;;;;;;;2.95;100.00;97189.56;5041345;28;20217;-83
2023/11/12 05:38:56;;;;;;;3.70;2.47;;;;;;;2.95;100.00;97202.63;5041282;28;20206;-82
2023/11/12 05:41:22;;;;;;;4.50;2.80;;;;;;;2.93;100.00;97207.09;5042671;28;20327;-82
2023/11/12 05:43:50;;;;;;;4.17;2.80;;;;;;;2.92;100.00;97208.00;5042749;28;20216;-82
2023/11/12 05:46:17;;;;;;;4.87;3.20;;;;;;;2.93;100.00;97204.47;5042856;28;20268;-81
2023/11/12 05:48:45;;;;;;;4.23;3.37;;;;;;;2.92;100.00;97207.16;5043099;28;20209;-82
2023/11/12 05:51:11;;;;;;;4.23;3.10;;;;;;;2.92;100.00;97200.19;5042134;28;20238;-83
2023/11/12 05:53:38;;;;;;;5.30;3.67;;;;;;;2.94;100.00;97200.94;5041561;28;20294;-83
2023/11/12 05:56:05;;;;;;;4.37;3.07;;;;;;;2.93;100.00;97209.69;5041336;28;20249;-82
2023/11/12 05:58:32;;;;;;;6.17;3.63;;;;;;;2.96;100.00;97212.16;5043590;28;20214;-82
2023/11/12 06:00:59;;;;;;;5.63;3.57;;;;;;;2.95;100.00;97207.84;5043386;28;20601;-81
2023/11/12 06:03:25;;;;;;;6.10;3.93;;;;;;;2.98;100.00;97212.06;5043889;28;20219;-82
2023/11/12 06:05:53;;;;;;;4.93;3.70;;;;;;;2.97;100.00;97221.66;5043481;28;20231;-83
2023/11/12 06:08:20;;;;;;;4.63;3.80;;;;;;;3.00;100.00;97221.47;5044516;28;20580;-82
2023/11/12 06:10:48;;;;;;;6.23;3.87;;;;;;;3.07;100.00;97222.00;5042982;28;20215;-81
2023/11/12 06:13:15;;;;;;;6.03;3.70;;;;;;;3.10;100.00;97222.69;5040816;28;20590;-81
2023/11/12 06:15:42;;;;;;;5.17;3.83;;;;;;;3.09;100.00;97221.00;5021019;28;20263;-83
2023/11/12 06:18:08;;;;;;;6.90;4.27;;;;;;;3.07;100.00;97222.00;5040565;28;20686;-83
2023/11/12 06:20:35;;;;;;;6.63;4.30;;;;;;;3.01;100.00;97223.16;5023903;28;20292;-82
2023/11/12 06:23:03;;;;;;;6.63;4.20;;;;;;;2.98;100.00;97228.56;5042640;28;20214;-83
2023/11/12 06:25:29;;;;;;;6.90;4.33;;;;;;;2.96;100.00;97235.66;5041648;28;20208;-84
2023/11/12 06:27:56;;;;;;;6.03;4.47;;;;;;;2.89;100.00;97234.25;5042407;28;20558;-83
2023/11/12 06:30:22;;;;;;;5.70;4.03;;;;;;;2.88;100.00;97232.56;5042083;28;20224;-83
2023/11/12 06:32:50;;;;;;;4.90;3.93;;;;;;;2.87;100.00;97240.50;5041495;28;20239;-82
2023/11/12 06:35:16;;;;;;;6.13;4.30;;;;;;;2.90;100.00;97246.41;5041096;28;20224;-83
2023/11/12 06:37:43;;;;;;;6.87;4.60;;;;;;;2.94;100.00;97245.31;5042069;28;20233;-82
2023/11/12 06:40:12;;;;;;;6.17;4.47;;;;;;;2.98;100.00;97246.84;5040741;28;20220;-82
2023/11/12 06:42:41;;;;;;;5.53;3.97;;;;;;;3.01;100.00;97254.47;5041778;28;20239;-82
2023/11/12 06:45:08;;;;;;;6.20;4.17;;;;;;;3.03;100.00;97263.09;5041749;28;20204;-83
2023/11/12 06:47:35;;;;;;;5.23;4.30;;;;;;;3.07;100.00;97269.00;5041675;28;20219;-82
2023/11/12 06:50:01;;;;;;;4.77;3.70;;;;;;;3.08;100.00;97266.31;5042074;28;20250;-81
2023/11/12 06:52:28;;;;;;;7.10;4.87;;;;;;;3.06;100.00;97273.34;5041509;28;20227;-82
2023/11/12 06:54:54;;;;;;;5.47;4.27;;;;;;;3.08;100.00;97287.19;5040526;28;20238;-81
2023/11/12 06:57:22;;;;;;;4.83;4.30;;;;;;;3.02;100.00;97282.28;5040463;28;20214;-81
2023/11/12 06:59:49;;;;;;;5.97;4.03;;;;;;;3.01;100.00;97283.19;5043931;28;20294;-83
2023/11/12 07:02:15;;;;;;;4.90;4.10;;;;;;;3.03;100.00;97289.19;5046695;28;20257;-83
2023/11/12 07:04:42;;;;;;;5.97;4.20;;;;;;;2.99;100.00;97287.66;5047315;28;20276;-83
2023/11/12 07:07:09;;;;;;;5.97;4.40;;;;;;;3.04;100.00;97290.88;5044233;28;20205;-83
2023/11/12 07:09:35;;;;;;;5.23;4.20;;;;;;;3.04;100.00;97290.03;5043008;28;20215;-82
2023/11/12 07:12:02;;;;;;;7.37;4.30;;;;;;;3.07;100.00;97306.38;5042433;28;20730;-83
2023/11/12 07:14:30;;;;;;;5.83;4.37;;;;;;;3.14;100.00;97307.75;5041566;28;20216;-83
2023/11/12 07:16:56;;;;;;;8.20;5.03;;;;;;;3.23;100.00;97296.81;5041549;28;20203;-83
2023/11/12 07:19:24;;;;;;;6.23;4.40;;;;;;;3.28;100.00;97305.25;5040930;28;20502;-83
2023/11/12 07:21:51;;;;;;;6.30;4.53;;;;;;;3.32;100.00;97301.56;5041721;28;20235;-82
2023/11/12 07:24:18;;;;;;;7.10;4.97;;;;;;;3.41;100.00;97306.25;5042458;28;20623;-82
2023/11/12 07:26:45;;;;;;;6.43;4.20;;;;;;;3.44;100.00;97313.94;5039945;28;20238;-82
2023/11/12 07:29:14;;;;;;;5.83;4.30;;;;;;;3.50;100.00;97310.16;5040733;28;20237;-81
2023/11/12 07:31:43;;;;;;;4.63;3.73;;;;;;;3.56;100.00;97321.09;5041081;28;20232;-80
2023/11/12 07:34:09;;;;;;;6.23;4.40;;;;;;;3.58;100.00;97319.25;5042208;28;20253;-82
2023/11/12 07:36:37;;;;;;;5.10;3.87;;;;;;;3.57;100.00;97322.81;5043270;28;20228;-81
2023/11/12 07:39:04;;;;;;;7.13;4.37;;;;;;;3.59;100.00;97314.84;5042640;28;20248;-82
2023/11/12 07:41:33;;;;;;;4.40;3.90;;;;;;;3.66;100.00;97316.25;5038714;28;20230;-80
2023/11/12 07:44:00;;;;;;;6.00;3.40;;;;;;;3.63;100.00;97306.78;5039163;28;20221;-81
2023/11/12 07:46:26;;;;;;;4.60;3.67;;;;;;;3.70;100.00;97307.28;5039189;28;20206;-82
2023/11/12 07:48:55;;;;;;;5.50;4.00;;;;;;;3.75;100.00;97305.25;5040352;28;20212;-82
2023/11/12 07:51:22;;;;;;;5.07;4.00;;;;;;;3.80;100.00;97309.28;5042165;28;20235;-80
2023/11/12 07:53:49;;;;;;;4.83;3.77;;;;;;;3.86;100.00;97303.72;5055650;28;20196;-80
2023/11/12 07:56:15;;;;;;;5.83;3.93;;;;;;;3.88;100.00;97311.50;5057670;28;20219;-81
2023/11/12 07:58:42;;;;;;;4.80;3.87;;;;;;;3.98;100.00;97323.13;5057948;28;20203;-82
2023/11/12 08:01:10;;;;;;;5.50;3.80;;;;;;;4.01;100.00;97323.81;5048129;28;20242;-82
2023/11/12 08:03:37;;;;;;;5.47;4.10;;;;;;;4.11;100.00;97321.50;5043912;28;20208;-78
2023/11/12 08:06:07;;;;;;;5.77;4.40;;;;;;;4.16;100.00;97330.78;5044649;28;20214;-82
2023/11/12 08:08:34;;;;;;;5.20;3.83;;;;;;;4.18;100.00;97326.31;5043097;28;20283;-81
2023/11/12 08:11:00;;;;;;;5.57;3.80;;;;;;;4.26;100.00;97326.72;5049311;28;20248;-82
2023/11/12 08:13:27;;;;;;;4.97;3.80;;;;;;;4.29;100.00;97321.28;5049159;28;20199;-83
2023/11/12 08:15:53;;;;;;;4.77;3.37;;;;;;;4.35;100.00;97317.50;5046352;28;20304;-81
2023/11/12 08:18:20;;;;;;;4.27;3.23;;;;;;;4.49;100.00;97326.25;5048382;28;20204;-81
2023/11/12 08:20:46;;;;;;;4.73;3.37;;;;;;;4.50;100.00;97322.69;5046736;28;20211;-81
2023/11/12 08:23:15;;;;;;;4.67;3.60;;;;;;;4.51;100.00;97324.38;5046046;28;20236;-82
2023/11/12 08:25:42;;;;;;;6.33;4.30;;;;;;;4.56;100.00;97324.94;5045305;28;20469;-83
2023/11/12 08:28:08;;;;;;;4.53;3.70;;;;;;;4.68;100.00;97337.31;5044497;28;20218;-83
2023/11/12 08:30:35;;;;;;;4.33;3.50;;;;;;;4.73;100.00;97330.03;5042343;28;20217;-81
2023/11/12 08:33:02;;;;;;;4.60;3.40;;;;;;;4.80;100.00;97331.38;5043334;28;20295;-82
2023/11/12 08:35:30;;;;;;;3.50;3.20;;;;;;;4.84;100.00;97327.63;5043509;28;20235;-83
2023/11/12 08:37:56;;;;;;;3.47;3.17;;;;;;;4.89;100.00;97329.97;5042334;28;20215;-83
2023/11/12 08:40:24;;;;;;;3.50;2.90;;;;;;;4.92;100.00;97322.78;5041940;28;20208;-82
2023/11/12 08:42:51;;;;;;;3.63;3.10;;;;;;;4.99;100.00;97318.88;5040658;28;20230;-83
2023/11/12 08:45:17;;;;;;;3.47;2.73;;;;;;;5.04;100.00;97315.97;5042816;28;20208;-82
2023/11/12 08:47:44;;;;;;;5.03;3.23;;;;;;;5.07;100.00;97316.63;5042250;28;20209;-82
2023/11/12 08:50:11;;;;;;;4.33;3.37;;;;;;;5.15;100.00;97322.25;5042130;28;20204;-83
2023/11/12 08:52:38;;;;;;;4.00;2.93;;;;;;;5.21;100.00;97319.25;5041582;28;20224;-82
2023/11/12 08:55:06;;;;;;;3.30;2.70;;;;;;;5.31;100.00;97322.16;5040100;28;20262;-83
2023/11/12 08:57:34;;;;;;;3.53;2.70;;;;;;;5.38;100.00;97324.28;5041676;28;20607;-82
2023/11/12 09:00:05;;;;;;;4.50;2.73;;;;;;;5.53;100.00;97323.38;5036052;28;20209;-81
2023/11/12 09:02:32;;;;;;;4.10;2.93;;;;;;;5.62;100.00;97324.56;5037520;28;20236;-83
2023/11/12 09:04:58;;;;;;;2.87;2.63;;;;;;;5.73;100.00;97325.56;5034856;28;20221;-81
2023/11/12 09:07:25;;;;;;;3.63;2.73;;;;;;;5.75;100.00;97326.31;5036077;28;20225;-79
2023/11/12 09:09:52;;;;;;;4.90;2.97;;;;;;;5.85;100.00;97335.31;5035677;28;20230;-80
2023/11/12 09:12:18;;;;;;;3.33;2.57;;;;;;;5.77;100.00;97327.06;5035589;28;20231;-80
2023/11/12 09:14:46;;;;;;;3.30;2.63;;;;;;;5.69;100.00;97329.31;5035469;28;20220;-78
2023/11/12 09:17:13;;;;;;;3.77;3.07;;;;;;;5.67;100.00;97333.81;5036284;28;20228;-79
2023/11/12 09:19:39;;;;;;;4.03;3.20;;;;;;;5.71;100.00;97334.47;5034801;28;20212;-79
2023/11/12 09:22:06;;;;;;;2.93;2.50;;;;;;;5.65;100.00;97332.22;5034825;28;20230;-79
2023/11/12 09:24:32;;;;;;;2.93;2.63;;;;;;;5.58;100.00;97336.19;5042675;28;20289;-80
2023/11/12 09:26:59;;;;;;;2.80;2.53;;;;;;;5.52;100.00;97334.78;5046512;28;20211;-81
2023/11/12 09:29:26;;;;;;;5.63;2.40;;;;;;;5.46;100.00;97329.94;5057956;28;20200;-81
2023/11/12 09:31:54;;;;;;;3.53;2.50;;;;;;;5.38;100.00;97329.53;5058735;28;20221;-81
2023/11/12 09:34:21;;;;;;;3.57;2.40;;;;;;;5.37;100.00;97333.09;5058414;28;20201;-83
2023/11/12 09:36:47;;;;;;;2.80;2.50;;;;;;;5.35;100.00;97334.97;5057681;28;20288;-81
2023/11/12 09:39:16;;;;;;;2.27;2.07;;;;;;;5.33;100.00;97342.09;5055230;28;20303;-83
2023/11/12 09:41:47;;;;;;;3.83;2.53;;;;;;;5.33;100.00;97339.47;5041970;28;20232;-84
2023/11/12 09:44:17;;;;;;;3.77;2.50;;;;;;;5.36;100.00;97338.41;5042732;28;20209;-82
2023/11/12 09:46:45;;;;;;;3.67;2.57;;;;;;;5.36;100.00;97338.41;5047531;28;20746;-80
2023/11/12 09:49:14;;;;;;;2.93;2.30;;;;;;;5.38;100.00;97337.38;5046276;28;20204;-79
2023/11/12 09:51:42;;;;;;;3.20;2.30;;;;;;;5.44;100.00;97337.00;5038106;28;20228;-81
2023/11/12 09:54:10;;;;;;;3.27;2.30;;;;;;;5.60;100.00;97344.78;5038987;28;20243;-80
2023/11/12 09:56:36;;;;;;;2.97;2.23;;;;;;;5.63;100.00;97332.31;5039357;28;20342;-77
2023/11/12 09:59:04;;;;;;;3.83;2.40;;;;;;;5.67;100.00;97340.88;5038321;28;20660;-79
2023/11/12 10:01:32;;;;;;;3.70;2.50;;;;;;;5.77;100.00;97349.81;5039944;28;20252;-79
2023/11/12 10:03:58;;;;;;;2.60;2.30;;;;;;;5.90;100.00;97354.25;5044386;28;20212;-81
2023/11/12 10:06:26;;;;;;;3.20;2.47;;;;;;;6.02;100.00;97348.22;5040846;28;20209;-80
2023/11/12 10:08:53;;;;;;;3.07;2.40;;;;;;;6.13;100.00;97350.16;5039660;28;20217;-81
2023/11/12 10:11:22;;;;;;;2.93;2.27;;;;;;;6.20;100.00;97352.28;5048732;28;20292;-78
2023/11/12 10:13:51;;;;;;;2.50;2.20;;;;;;;6.34;100.00;97349.63;5043504;28;20272;-80
2023/11/12 10:16:25;;;;;;;4.57;2.80;;;;;;;6.48;100.00;97340.84;5040164;28;20225;-83
2023/11/12 10:18:52;;;;;;;4.10;2.40;;;;;;;6.52;100.00;97345.78;5039333;28;20205;-82
2023/11/12 10:21:19;;;;;;;3.53;2.57;;;;;;;6.56;100.00;97338.56;5039257;28;20603;-79
2023/11/12 10:23:47;;;;;;;2.63;2.03;;;;;;;6.61;100.00;97341.72;5043434;28;20255;-78
2023/11/12 10:26:14;;;;;;;2.70;2.00;;;;;;;6.65;100.00;97332.72;5046431;28;20270;-78
2023/11/12 10:28:41;;;;;;;2.90;2.60;;;;;;;6.72;100.00;97324.31;5047343;28;20237;-81
2023/11/12 10:31:13;;;;;;;2.37;2.17;;;;;;;6.74;100.00;97332.94;5045891;28;20239;-81
2023/11/12 10:33:41;;;;;;;2.27;1.77;;;;;;;6.78;100.00;97326.53;5045313;28;20212;-80
2023/11/12 10:36:09;;;;;;;2.67;2.25;;;;;;;6.84;100.00;97323.50;5056487;28;20452;-79
2023/11/12 10:38:48;;;;;;;3.00;2.13;;;;;;;6.90;100.00;97330.97;5064938;28;20207;-79
2023/11/12 10:41:15;;;;;;;2.20;1.90;;;;;;;6.93;100.00;97328.16;5062944;28;20244;-83
2023/11/12 10:43:57;;;;;;;3.67;2.37;;;;;;;6.99;100.00;97322.47;5063935;28;20326;-79
2023/11/12 10:46:24;;;;;;;2.87;1.70;;;;;;;7.09;100.00;97323.50;5056596;28;20204;-81
2023/11/12 10:48:54;;;;;;;2.77;1.57;;;;;;;7.14;100.00;97325.84;5059603;28;20218;-81
2023/11/12 10:51:21;;;;;;;2.83;1.90;;;;;;;7.16;100.00;97319.53;5062078;28;20307;-81
2023/11/12 10:53:54;;;;;;;2.47;1.87;;;;;;;7.23;100.00;97315.56;5058881;28;20208;-81
2023/11/12 10:56:22;;;;;;;2.30;2.10;;;;;;;7.21;100.00;97312.16;5060181;28;20323;-82
2023/11/12 10:58:50;;;;;;;2.73;1.87;;;;;;;7.29;100.00;97315.13;5058879;28;20213;-81
2023/11/12 11:01:17;;;;;;;2.87;1.90;;;;;;;7.33;100.00;97306.06;5056904;28;20239;-81
2023/11/12 11:03:45;;;;;;;2.70;1.80;;;;;;;7.33;100.00;97316.56;5059574;28;20573;-81
2023/11/12 11:06:14;;;;;;;2.43;2.03;;;;;;;7.33;100.00;97316.56;5059186;28;20204;-80
2023/11/12 11:08:41;;;;;;;2.70;2.13;;;;;;;7.38;100.00;97310.06;5061220;28;20217;-80
2023/11/12 11:11:11;;;;;;;2.77;2.20;;;;;;;7.47;100.00;97319.13;5059504;28;20719;-78
2023/11/12 11:13:38;;;;;;;3.17;2.10;;;;;;;7.45;100.00;97303.44;5059388;28;20698;-80
2023/11/12 11:16:05;;;;;;;2.80;2.03;;;;;;;7.57;100.00;97309.63;5060622;28;20264;-80
2023/11/12 11:18:51;;;;;;;3.90;1.90;;;;;;;7.59;100.00;97308.56;5060991;28;20221;-82
2023/11/12 11:21:18;;;;;;;2.57;2.10;;;;;;;7.63;100.00;97299.53;5058915;28;20225;-79
2023/11/12 11:23:47;;;;;;;2.83;2.00;;;;;;;7.60;100.00;97304.16;5068643;28;20213;-81
2023/11/12 11:26:45;;;;;;;2.43;2.07;;;;;;;7.66;100.00;97306.34;5067653;28;20212;-82
2023/11/12 11:29:13;;;;;;;4.30;2.10;;;;;;;7.67;100.00;97305.41;4978377;28;20732;-79
2023/11/12 11:31:41;;;;;;;3.77;2.10;;;;;;;7.73;100.00;97305.78;5040720;28;20226;-82
2023/11/12 11:34:10;;;;;;;2.67;2.30;;;;;;;7.73;100.00;97297.06;5042741;28;20210;-82
2023/11/12 11:36:37;;;;;;;3.13;2.30;;;;;;;7.68;100.00;97291.28;5063456;28;20240;-81